Time;durP1;ratioP1;P1;durP2;ratioP2;P2;SDS_P1;SDS_P2;PMS_P1;PMS_P2;Temp;Humidity;BMP_temperature;BMP_pressure;BME280_temperature;BME280_humidity;BME280_pressure;Samples;Min_cycle;Max_cycle;Signal;HPM_P1;HPM_P2
2023/10/01 00:00:05;;;;;;;17.83;8.45;;;14.40;99.90;;;;;;5034996;28;20045;-67
2023/10/01 00:02:32;;;;;;;16.98;8.93;;;14.30;99.90;;;;;;5017163;28;20141;-67
2023/10/01 00:04:58;;;;;;;17.45;8.18;;;14.30;99.90;;;;;;5034789;28;20138;-67
2023/10/01 00:07:23;;;;;;;20.73;9.27;;;14.30;99.90;;;;;;5029449;28;20049;-67
2023/10/01 00:09:49;;;;;;;18.80;9.73;;;14.30;99.90;;;;;;5021188;28;20085;-67
2023/10/01 00:12:14;;;;;;;21.83;9.80;;;14.20;99.90;;;;;;5038768;28;20457;-67
2023/10/01 00:14:40;;;;;;;22.38;9.73;;;14.20;99.90;;;;;;5033527;28;20585;-67
2023/10/01 00:17:06;;;;;;;16.92;8.70;;;14.10;99.90;;;;;;5039212;28;20032;-67
2023/10/01 00:19:32;;;;;;;19.52;9.43;;;14.10;99.90;;;;;;5040950;28;20187;-66
2023/10/01 00:22:00;;;;;;;13.27;8.63;;;14.00;99.90;;;;;;5037489;28;20052;-67
2023/10/01 00:24:25;;;;;;;14.77;8.18;;;13.90;99.90;;;;;;5031546;28;20672;-66
2023/10/01 00:26:51;;;;;;;17.67;8.20;;;13.80;99.90;;;;;;5037804;28;20347;-67
2023/10/01 00:29:18;;;;;;;19.63;8.63;;;13.80;99.90;;;;;;5029499;28;20069;-67
2023/10/01 00:31:45;;;;;;;21.10;9.25;;;13.70;99.90;;;;;;5033614;28;20037;-66
2023/10/01 00:34:11;;;;;;;17.52;9.00;;;13.70;99.90;;;;;;5036677;28;20073;-66
2023/10/01 00:36:37;;;;;;;19.40;8.85;;;13.70;99.90;;;;;;5042235;28;20045;-67
2023/10/01 00:39:03;;;;;;;20.70;10.25;;;13.70;99.90;;;;;;5016228;28;20107;-67
2023/10/01 00:41:29;;;;;;;16.75;9.63;;;13.80;99.90;;;;;;5043534;28;20430;-67
2023/10/01 00:43:59;;;;;;;21.65;9.77;;;13.70;99.90;;;;;;5036156;28;20056;-67
2023/10/01 00:46:25;;;;;;;;;;;13.70;99.90;;;;;;5027401;28;20710;-66
2023/10/01 00:48:52;;;;;;;12.90;8.40;;;13.70;99.90;;;;;;5041319;28;19928;-67
2023/10/01 00:51:20;;;;;;;20.58;9.18;;;13.80;99.90;;;;;;5030298;28;20377;-67
2023/10/01 00:53:46;;;;;;;17.50;9.02;;;13.80;99.90;;;;;;5036432;28;20044;-66
2023/10/01 00:56:12;;;;;;;16.75;9.57;;;13.80;99.90;;;;;;5036778;28;20040;-67
2023/10/01 00:58:38;;;;;;;20.67;9.82;;;13.90;99.90;;;;;;5039371;28;20166;-67
2023/10/01 01:01:07;;;;;;;17.83;9.25;;;13.90;99.90;;;;;;5016398;28;20067;-66
2023/10/01 01:03:34;;;;;;;16.75;8.75;;;13.80;99.90;;;;;;5036965;28;20060;-67
2023/10/01 01:08:33;;;;;;;20.27;9.63;;;13.80;99.90;;;;;;5046977;28;20416;-67
2023/10/01 01:11:03;;;;;;;16.90;9.27;;;13.70;99.90;;;;;;5028523;28;20085;-67
2023/10/01 01:13:30;;;;;;;22.45;10.00;;;13.80;99.90;;;;;;5036474;28;20346;-67
2023/10/01 01:16:00;;;;;;;19.27;9.80;;;13.70;99.90;;;;;;5027952;28;20119;-67
2023/10/01 01:18:26;;;;;;;18.85;10.15;;;13.70;99.90;;;;;;5028392;28;20171;-67
2023/10/01 01:21:05;;;;;;;17.63;9.60;;;13.70;99.90;;;;;;5033820;28;20075;-67
2023/10/01 01:23:31;;;;;;;18.13;9.23;;;13.60;99.90;;;;;;5031126;28;20049;-67
2023/10/01 01:25:57;;;;;;;17.48;9.30;;;13.60;99.90;;;;;;5032918;28;22510;-67
2023/10/01 01:28:27;;;;;;;16.73;9.30;;;13.60;99.90;;;;;;5041623;28;20044;-66
2023/10/01 01:30:58;;;;;;;21.85;9.75;;;13.60;99.90;;;;;;5022844;28;20405;-67
2023/10/01 01:33:31;;;;;;;20.05;8.77;;;13.50;99.90;;;;;;5034147;28;20037;-66
2023/10/01 01:35:57;;;;;;;19.90;9.52;;;13.50;99.90;;;;;;5032976;28;20588;-67
2023/10/01 01:38:23;;;;;;;19.40;9.40;;;13.50;99.90;;;;;;5030254;28;20053;-67
2023/10/01 01:40:51;;;;;;;18.80;10.38;;;13.50;99.90;;;;;;5032992;28;20142;-66
2023/10/01 01:43:21;;;;;;;17.25;9.75;;;13.40;99.90;;;;;;5030620;28;20049;-67
2023/10/01 01:45:54;;;;;;;21.95;9.40;;;13.40;99.90;;;;;;5034986;28;20033;-67
2023/10/01 01:50:58;;;;;;;19.13;9.63;;;13.50;99.90;;;;;;5031208;28;20048;-66
2023/10/01 01:53:35;;;;;;;19.70;10.02;;;13.60;99.90;;;;;;5027826;28;20071;-66
2023/10/01 01:56:08;;;;;;;22.33;10.20;;;13.60;99.90;;;;;;5033823;28;20089;-66
2023/10/01 01:58:35;;;;;;;22.80;10.20;;;13.60;99.90;;;;;;5031624;28;20385;-66
2023/10/01 02:01:01;;;;;;;22.40;10.43;;;13.70;99.90;;;;;;5031473;28;20033;-67
2023/10/01 02:03:33;;;;;;;16.33;10.30;;;13.80;99.90;;;;;;5039192;28;20163;-67
2023/10/01 02:06:00;;;;;;;20.38;10.02;;;13.80;99.90;;;;;;5034758;28;20043;-67
2023/10/01 02:08:44;;;;;;;19.38;10.57;;;13.90;99.90;;;;;;5037591;28;20060;-66
2023/10/01 02:11:10;;;;;;;16.85;9.70;;;13.90;99.90;;;;;;5030057;28;20044;-67
2023/10/01 02:13:41;;;;;;;19.55;9.55;;;13.90;99.90;;;;;;5044433;28;20045;-67
2023/10/01 02:16:35;;;;;;;20.98;10.60;;;13.90;99.90;;;;;;5045466;28;20125;-67
2023/10/01 02:19:17;;;;;;;19.42;9.55;;;13.90;99.90;;;;;;5038195;28;20044;-67
2023/10/01 02:22:05;;;;;;;22.17;9.88;;;14.00;99.90;;;;;;5030152;28;20059;-67
2023/10/01 02:24:45;;;;;;;19.60;9.77;;;14.00;99.90;;;;;;5032615;28;20150;-67
2023/10/01 02:27:15;;;;;;;18.30;9.80;;;14.00;99.90;;;;;;5037387;28;20238;-67
2023/10/01 02:32:28;;;;;;;20.15;10.20;;;14.00;99.90;;;;;;5044475;28;20448;-67
2023/10/01 02:34:56;;;;;;;21.55;11.15;;;14.10;99.90;;;;;;5034152;28;20064;-67
2023/10/01 02:37:29;;;;;;;19.77;10.85;;;14.10;99.90;;;;;;5031749;28;20047;-67
2023/10/01 02:39:56;;;;;;;18.55;10.90;;;14.10;99.90;;;;;;5030658;28;20053;-67
2023/10/01 02:42:22;;;;;;;19.75;10.70;;;14.10;99.90;;;;;;5044588;28;20055;-67
2023/10/01 02:44:48;;;;;;;19.38;10.75;;;14.10;99.90;;;;;;5034719;28;20037;-67
2023/10/01 02:47:18;;;;;;;21.48;10.18;;;14.10;99.90;;;;;;5045197;28;20094;-67
2023/10/01 02:49:49;;;;;;;22.30;10.63;;;14.20;99.90;;;;;;5037394;28;20611;-68
2023/10/01 02:52:16;;;;;;;21.13;11.18;;;14.20;99.90;;;;;;5039582;28;20140;-67
2023/10/01 02:54:42;;;;;;;19.05;10.52;;;14.20;99.90;;;;;;5042661;28;20048;-67
2023/10/01 02:57:23;;;;;;;19.58;10.80;;;14.10;99.90;;;;;;5043340;28;20037;-67
2023/10/01 03:02:38;;;;;;;20.60;10.05;;;14.20;99.90;;;;;;5032009;28;20504;-67
2023/10/01 03:05:14;;;;;;;19.67;10.82;;;14.20;99.90;;;;;;5040590;28;20057;-67
2023/10/01 03:07:45;;;;;;;22.98;10.73;;;14.20;99.90;;;;;;5032382;28;20049;-67
2023/10/01 03:10:14;;;;;;;;;;;14.20;99.90;;;;;;5051852;28;20039;-67
2023/10/01 03:12:41;;;;;;;17.80;10.18;;;14.20;99.90;;;;;;5012805;28;19948;-66
2023/10/01 03:17:47;;;;;;;21.80;10.18;;;14.20;99.90;;;;;;5039391;28;20107;-67
2023/10/01 03:21:07;;;;;;;22.20;10.88;;;14.20;99.90;;;;;;5039280;28;20079;-67
2023/10/01 03:23:01;;;;;;;18.33;10.75;;;14.20;99.90;;;;;;5042866;28;20052;-66
2023/10/01 03:25:30;;;;;;;19.63;11.23;;;14.20;99.90;;;;;;5033817;28;20138;-67
2023/10/01 03:27:59;;;;;;;19.98;10.52;;;14.30;99.90;;;;;;5038578;28;20045;-66
2023/10/01 03:30:31;;;;;;;18.13;10.27;;;14.30;99.90;;;;;;5029251;28;20112;-67
2023/10/01 03:33:07;;;;;;;18.85;11.20;;;14.30;99.90;;;;;;5033538;28;20124;-67
2023/10/01 03:35:34;;;;;;;21.90;11.30;;;14.30;99.90;;;;;;5042267;28;20124;-67
2023/10/01 03:38:09;;;;;;;26.20;12.73;;;14.30;99.90;;;;;;5049798;28;20056;-67
2023/10/01 03:40:57;;;;;;;22.13;11.20;;;14.30;99.90;;;;;;5041547;28;20051;-67
2023/10/01 03:43:31;;;;;;;20.80;11.65;;;14.30;99.90;;;;;;5048573;28;20132;-67
2023/10/01 03:46:07;;;;;;;22.95;11.82;;;14.30;99.90;;;;;;5045844;28;20061;-67
2023/10/01 03:51:28;;;;;;;20.30;11.00;;;14.30;99.90;;;;;;5048264;28;20045;-67
2023/10/01 03:54:06;;;;;;;22.08;11.10;;;14.30;99.90;;;;;;5046596;28;20064;-67
2023/10/01 03:56:36;;;;;;;22.35;10.95;;;14.30;99.90;;;;;;5049890;28;20091;-67
2023/10/01 03:59:02;;;;;;;;;;;14.30;99.90;;;;;;5030402;28;20059;-66
2023/10/01 04:01:33;;;;;;;29.33;11.20;;;14.30;99.90;;;;;;5034472;28;20019;-67
2023/10/01 04:04:03;;;;;;;21.73;12.10;;;14.30;99.90;;;;;;5042979;28;20052;-67
2023/10/01 04:06:30;;;;;;;23.93;11.30;;;14.30;99.90;;;;;;5046278;28;20151;-68
2023/10/01 04:08:56;;;;;;;20.17;10.43;;;14.30;99.90;;;;;;5043012;28;20518;-67
2023/10/01 04:11:49;;;;;;;19.52;11.52;;;14.30;99.90;;;;;;5037596;28;20139;-67
2023/10/01 04:14:17;;;;;;;19.52;10.82;;;14.30;99.90;;;;;;5042503;28;20048;-67
2023/10/01 04:16:48;;;;;;;20.33;11.27;;;14.30;99.90;;;;;;5046932;28;20115;-66
2023/10/01 04:19:18;;;;;;;19.75;11.07;;;14.30;99.90;;;;;;5034460;28;20088;-67
2023/10/01 04:21:50;;;;;;;20.45;10.88;;;14.30;99.90;;;;;;5033477;28;20202;-67
2023/10/01 04:24:22;;;;;;;23.20;12.18;;;14.30;99.90;;;;;;5046447;28;20048;-68
2023/10/01 04:26:48;;;;;;;19.02;9.88;;;14.30;99.90;;;;;;5043006;28;20040;-68
2023/10/01 04:29:16;;;;;;;24.83;11.15;;;14.30;99.90;;;;;;5042043;28;20458;-67
2023/10/01 04:31:47;;;;;;;18.88;9.93;;;14.30;99.90;;;;;;5032102;28;20136;-67
2023/10/01 04:34:17;;;;;;;17.75;10.68;;;14.30;99.90;;;;;;5039056;28;20086;-67
2023/10/01 04:36:44;;;;;;;19.75;11.18;;;14.30;99.90;;;;;;5033229;28;20045;-67
2023/10/01 04:39:10;;;;;;;19.13;10.82;;;14.40;99.90;;;;;;5038502;28;20056;-67
2023/10/01 04:41:37;;;;;;;22.33;9.57;;;14.30;99.90;;;;;;5039844;28;20041;-67
2023/10/01 04:44:07;;;;;;;17.83;10.88;;;14.40;99.90;;;;;;5042528;28;20045;-67
2023/10/01 04:46:37;;;;;;;18.92;10.63;;;14.40;99.90;;;;;;5043181;28;20056;-67
2023/10/01 04:49:26;;;;;;;19.77;10.55;;;14.40;99.90;;;;;;5042539;28;20037;-67
2023/10/01 04:51:54;;;;;;;18.53;10.20;;;14.40;99.90;;;;;;5043799;28;20032;-67
2023/10/01 04:54:21;;;;;;;18.75;9.80;;;14.40;99.90;;;;;;5025322;28;20128;-67
2023/10/01 04:56:50;;;;;;;21.25;9.52;;;14.40;99.90;;;;;;5050086;28;20154;-67
2023/10/01 04:59:19;;;;;;;20.02;9.20;;;14.40;99.90;;;;;;5046270;28;20202;-67
2023/10/01 05:01:47;;;;;;;18.17;9.52;;;14.40;99.90;;;;;;5037464;28;20115;-67
2023/10/01 05:04:14;;;;;;;18.45;9.63;;;14.40;99.90;;;;;;5026588;28;20123;-68
2023/10/01 05:06:43;;;;;;;21.02;8.90;;;14.40;99.90;;;;;;5042373;28;20593;-67
2023/10/01 05:09:09;;;;;;;21.77;10.45;;;14.40;99.90;;;;;;5038817;28;20140;-67
2023/10/01 05:11:35;;;;;;;18.98;9.85;;;14.40;99.90;;;;;;5024492;28;20030;-67
2023/10/01 05:14:04;;;;;;;17.85;8.52;;;14.40;99.90;;;;;;5037970;28;20082;-66
2023/10/01 05:16:32;;;;;;;23.15;9.40;;;14.40;99.90;;;;;;5032477;28;20049;-68
2023/10/01 05:19:09;;;;;;;17.77;9.82;;;14.40;99.90;;;;;;5041792;28;20040;-67
2023/10/01 05:21:49;;;;;;;17.95;9.43;;;14.40;99.90;;;;;;5037735;28;20044;-67
2023/10/01 05:24:34;;;;;;;16.65;9.30;;;14.40;99.90;;;;;;5051895;28;20040;-67
2023/10/01 05:27:08;;;;;;;16.30;9.38;;;14.40;99.90;;;;;;5031595;28;20120;-68
2023/10/01 05:29:34;;;;;;;18.83;9.07;;;14.40;99.90;;;;;;5022704;28;20073;-67
2023/10/01 05:32:01;;;;;;;20.02;9.23;;;14.50;99.90;;;;;;5032562;28;20041;-67
2023/10/01 05:34:28;;;;;;;18.17;8.90;;;14.40;99.90;;;;;;5037995;28;20072;-67
2023/10/01 05:37:08;;;;;;;17.55;9.55;;;14.40;99.90;;;;;;5024781;28;20439;-67
2023/10/01 05:39:57;;;;;;;20.10;8.98;;;14.40;99.90;;;;;;5030219;28;20360;-68
2023/10/01 05:42:28;;;;;;;18.35;8.65;;;14.40;99.90;;;;;;5038742;28;20054;-67
2023/10/01 05:44:55;;;;;;;19.10;8.93;;;14.20;99.90;;;;;;5044567;28;20072;-67
2023/10/01 05:47:22;;;;;;;21.83;9.98;;;13.90;99.90;;;;;;5042716;28;20037;-67
2023/10/01 05:49:53;;;;;;;20.67;9.70;;;13.80;99.90;;;;;;5043514;28;20044;-67
2023/10/01 05:52:20;;;;;;;19.80;10.23;;;13.70;99.90;;;;;;5043182;28;20040;-68
2023/10/01 05:54:52;;;;;;;19.30;9.70;;;13.60;99.90;;;;;;5044010;28;20033;-67
2023/10/01 05:57:21;;;;;;;19.58;9.75;;;13.40;99.90;;;;;;5029212;28;20045;-68
2023/10/01 06:00:00;;;;;;;21.95;9.65;;;13.40;99.90;;;;;;5039641;28;20037;-68
2023/10/01 06:07:55;;;;;;;22.58;10.13;;;13.30;99.90;;;;;;5042484;28;20120;-68
2023/10/01 06:10:28;;;;;;;21.05;10.48;;;13.30;99.90;;;;;;5042763;28;20378;-68
2023/10/01 06:12:56;;;;;;;20.88;10.05;;;13.30;99.90;;;;;;5043992;28;20114;-68
2023/10/01 06:15:25;;;;;;;21.63;10.85;;;13.30;99.90;;;;;;5036238;28;20431;-68
2023/10/01 06:17:51;;;;;;;21.80;10.82;;;13.30;99.90;;;;;;5042010;28;20061;-68
2023/10/01 06:20:26;;;;;;;24.27;10.27;;;13.30;99.90;;;;;;5026445;28;20102;-68
2023/10/01 06:22:56;;;;;;;24.85;11.32;;;13.30;99.90;;;;;;5040351;28;20323;-68
2023/10/01 06:25:37;;;;;;;20.93;10.57;;;13.30;99.90;;;;;;5039606;28;20409;-68
2023/10/01 06:28:08;;;;;;;22.40;10.43;;;13.30;99.90;;;;;;5043628;28;20045;-68
2023/10/01 06:30:34;;;;;;;25.08;10.68;;;13.30;99.90;;;;;;5039411;28;20041;-68
2023/10/01 06:32:59;;;;;;;26.38;10.68;;;13.40;99.90;;;;;;5021345;28;20043;-68
2023/10/01 06:35:26;;;;;;;20.17;9.70;;;13.40;99.90;;;;;;5041661;28;20710;-68
2023/10/01 06:37:53;;;;;;;20.92;10.52;;;13.40;99.90;;;;;;5045940;28;20090;-68
2023/10/01 06:40:31;;;;;;;25.65;10.73;;;13.40;99.90;;;;;;5043996;28;20115;-68
2023/10/01 06:43:00;;;;;;;21.50;9.95;;;13.40;99.90;;;;;;5036588;28;20037;-68
2023/10/01 06:45:41;;;;;;;20.88;9.70;;;13.50;99.90;;;;;;5041654;28;20040;-68
2023/10/01 06:48:08;;;;;;;;;;;13.50;99.90;;;;;;5038659;28;20040;-68
2023/10/01 06:50:46;;;;;;;21.70;9.23;;;13.50;99.90;;;;;;5040833;28;20299;-68
2023/10/01 06:53:13;;;;;;;21.40;8.93;;;13.50;99.90;;;;;;5042049;28;20442;-68
2023/10/01 06:55:39;;;;;;;17.58;8.52;;;13.50;99.90;;;;;;5039611;28;20033;-68
2023/10/01 06:58:07;;;;;;;38.85;11.52;;;13.60;99.90;;;;;;5039722;28;20456;-68
2023/10/01 07:00:36;;;;;;;17.15;8.48;;;13.60;99.90;;;;;;5042779;28;20048;-69
2023/10/01 07:03:17;;;;;;;22.05;9.50;;;13.60;99.90;;;;;;5043517;28;20087;-68
2023/10/01 07:05:45;;;;;;;24.63;8.95;;;13.70;99.90;;;;;;5035234;28;20140;-68
2023/10/01 07:08:11;;;;;;;20.92;9.25;;;13.80;99.90;;;;;;5040397;28;20492;-68
2023/10/01 07:10:37;;;;;;;19.98;9.40;;;13.80;99.90;;;;;;5038123;28;20029;-68
2023/10/01 07:13:05;;;;;;;22.52;9.32;;;13.80;99.90;;;;;;5050781;28;20036;-68
2023/10/01 07:15:37;;;;;;;22.17;8.85;;;13.80;99.90;;;;;;5046175;28;20059;-68
2023/10/01 07:18:15;;;;;;;20.63;9.18;;;13.80;99.90;;;;;;5041031;28;20049;-68
2023/10/01 07:20:44;;;;;;;22.27;9.00;;;13.90;99.90;;;;;;5034084;28;20041;-68
2023/10/01 07:23:11;;;;;;;21.45;9.18;;;13.90;99.90;;;;;;5043838;28;20041;-68
2023/10/01 07:25:43;;;;;;;23.33;9.43;;;13.90;99.90;;;;;;5026024;28;20038;-68
2023/10/01 07:28:12;;;;;;;24.67;9.20;;;13.90;99.90;;;;;;5046047;28;20076;-68
2023/10/01 07:30:56;;;;;;;20.95;9.60;;;13.90;99.90;;;;;;5049790;28;20033;-68
2023/10/01 07:33:22;;;;;;;21.67;9.10;;;13.90;99.90;;;;;;5021050;28;20053;-66
2023/10/01 07:36:01;;;;;;;22.40;9.23;;;14.00;99.90;;;;;;5046209;28;20539;-67
2023/10/01 07:38:29;;;;;;;20.50;9.20;;;14.00;99.90;;;;;;5047112;28;20045;-68
2023/10/01 07:40:57;;;;;;;23.52;9.23;;;14.10;99.90;;;;;;5041003;28;20040;-68
2023/10/01 07:43:27;;;;;;;20.20;9.38;;;14.10;99.90;;;;;;5048867;28;20060;-68
2023/10/01 07:45:58;;;;;;;18.20;9.50;;;14.10;99.90;;;;;;5048133;28;20472;-69
2023/10/01 07:48:33;;;;;;;18.30;9.32;;;14.20;99.90;;;;;;5049760;28;20033;-68
2023/10/01 07:51:02;;;;;;;18.02;8.95;;;14.20;99.90;;;;;;5045242;28;20033;-67
2023/10/01 07:53:34;;;;;;;18.15;9.38;;;14.20;99.90;;;;;;5038073;28;20046;-68
2023/10/01 07:56:02;;;;;;;23.60;9.55;;;14.20;99.90;;;;;;5047133;28;20056;-68
2023/10/01 07:58:47;;;;;;;22.40;9.32;;;14.20;99.90;;;;;;5040214;28;20444;-68
2023/10/01 08:01:36;;;;;;;21.67;8.57;;;14.20;99.90;;;;;;5045730;28;20095;-67
2023/10/01 08:04:06;;;;;;;22.60;9.55;;;14.20;99.90;;;;;;5049949;28;20060;-69
2023/10/01 08:06:41;;;;;;;21.63;9.27;;;14.20;99.90;;;;;;5044518;28;20045;-70
2023/10/01 08:09:12;;;;;;;27.30;10.52;;;14.30;99.90;;;;;;5035971;28;20146;-68
2023/10/01 08:12:12;;;;;;;20.40;9.73;;;14.30;99.90;;;;;;5030808;28;20464;-69
2023/10/01 08:14:33;;;;;;;22.45;9.73;;;14.50;99.90;;;;;;5044848;28;20083;-69
2023/10/01 08:17:03;;;;;;;18.42;8.90;;;14.50;99.90;;;;;;5031280;28;20082;-68
2023/10/01 08:19:49;;;;;;;21.57;9.53;;;14.50;99.90;;;;;;5047149;28;20132;-69
2023/10/01 08:22:22;;;;;;;19.98;9.30;;;14.50;99.90;;;;;;5047102;28;20303;-68
2023/10/01 08:24:49;;;;;;;22.95;9.68;;;14.40;99.90;;;;;;5047007;28;20059;-68
2023/10/01 08:27:31;;;;;;;19.05;9.23;;;14.40;99.90;;;;;;5049773;28;20052;-68
2023/10/01 08:30:18;;;;;;;19.52;9.38;;;14.30;99.90;;;;;;5048558;28;20893;-68
2023/10/01 08:32:49;;;;;;;21.33;9.10;;;14.30;99.90;;;;;;5045367;28;20041;-68
2023/10/01 08:35:23;;;;;;;19.00;9.25;;;14.40;99.90;;;;;;5043899;28;20120;-69
2023/10/01 08:37:49;;;;;;;21.48;8.82;;;14.50;99.90;;;;;;5030830;28;20107;-68
2023/10/01 08:40:17;;;;;;;19.63;8.40;;;14.60;99.90;;;;;;5028013;28;20041;-68
2023/10/01 08:42:47;;;;;;;22.17;9.35;;;14.70;99.90;;;;;;5047330;28;20365;-68
2023/10/01 08:45:17;;;;;;;;;;;14.90;99.90;;;;;;5045120;28;20044;-67
2023/10/01 08:47:45;;;;;;;15.30;7.95;;;15.00;99.90;;;;;;5043012;28;19936;-68
2023/10/01 08:50:27;;;;;;;18.38;8.13;;;15.10;99.90;;;;;;5043850;28;20045;-67
2023/10/01 08:52:55;;;;;;;20.00;7.68;;;15.10;99.90;;;;;;5030381;28;20143;-68
2023/10/01 08:55:26;;;;;;;17.33;7.85;;;15.20;99.90;;;;;;5046808;28;20045;-68
2023/10/01 08:57:55;;;;;;;17.80;7.57;;;15.20;99.90;;;;;;5030546;28;20331;-68
2023/10/01 09:00:23;;;;;;;20.17;7.28;;;15.30;99.90;;;;;;5029987;28;20037;-67
2023/10/01 09:02:51;;;;;;;15.90;7.10;;;15.30;99.90;;;;;;5029930;28;20061;-67
2023/10/01 09:05:24;;;;;;;17.23;7.82;;;15.20;99.90;;;;;;5041629;28;20053;-68
2023/10/01 09:08:14;;;;;;;17.40;7.20;;;15.30;99.90;;;;;;5033005;28;20124;-68
2023/10/01 09:10:39;;;;;;;19.65;7.85;;;15.40;99.90;;;;;;5049039;28;20052;-68
2023/10/01 09:13:08;;;;;;;18.98;7.13;;;15.50;99.90;;;;;;5050221;28;20056;-68
2023/10/01 09:15:38;;;;;;;19.15;7.60;;;15.60;99.90;;;;;;5032062;28;20465;-68
2023/10/01 09:18:10;;;;;;;15.30;6.50;;;15.80;99.90;;;;;;5033466;28;20334;-68
2023/10/01 09:20:42;;;;;;;16.70;7.15;;;16.00;99.90;;;;;;5047141;28;20128;-68
2023/10/01 09:23:08;;;;;;;18.20;6.90;;;16.10;99.90;;;;;;5049206;28;20048;-69
2023/10/01 09:25:34;;;;;;;17.38;6.55;;;16.20;99.90;;;;;;5047807;28;20142;-68
2023/10/01 09:28:04;;;;;;;16.67;6.90;;;16.10;99.90;;;;;;5049881;28;20055;-68
2023/10/01 09:30:35;;;;;;;14.40;6.10;;;16.20;99.90;;;;;;5032034;28;20037;-69
2023/10/01 09:33:05;;;;;;;13.68;6.03;;;16.30;99.90;;;;;;5048425;28;20037;-68
2023/10/01 09:35:56;;;;;;;16.25;7.00;;;16.50;99.90;;;;;;5045421;28;20116;-68
2023/10/01 09:38:27;;;;;;;16.13;6.22;;;16.70;99.90;;;;;;5048211;28;20049;-69
2023/10/01 09:40:54;;;;;;;;;;;16.90;99.90;;;;;;5048219;28;20358;-69
2023/10/01 09:43:30;;;;;;;15.93;6.38;;;16.90;99.90;;;;;;5048088;28;19939;-69
2023/10/01 09:45:58;;;;;;;14.70;6.20;;;17.00;99.90;;;;;;5049113;28;20115;-69
2023/10/01 09:48:48;;;;;;;13.02;5.80;;;17.20;99.90;;;;;;5032571;28;20124;-68
2023/10/01 09:51:14;;;;;;;11.68;5.70;;;17.40;99.90;;;;;;5047412;28;20044;-69
2023/10/01 09:53:50;;;;;;;19.15;6.43;;;17.40;99.90;;;;;;5046674;28;20547;-69
2023/10/01 09:56:26;;;;;;;13.68;5.45;;;17.40;99.90;;;;;;5049192;28;20045;-68
2023/10/01 09:59:03;;;;;;;14.05;6.63;;;17.40;99.90;;;;;;5049497;28;20037;-69
2023/10/01 10:01:37;;;;;;;13.27;6.25;;;17.50;99.90;;;;;;5048485;28;20090;-68
2023/10/01 10:04:08;;;;;;;12.70;6.38;;;17.60;99.90;;;;;;5047528;28;20120;-69
2023/10/01 10:06:34;;;;;;;13.63;5.15;;;17.70;99.90;;;;;;5042499;28;20068;-68
2023/10/01 10:09:06;;;;;;;19.90;6.53;;;17.70;99.90;;;;;;5047840;28;20136;-69
2023/10/01 10:11:37;;;;;;;11.57;5.45;;;17.80;99.90;;;;;;5047224;28;20045;-70
2023/10/01 10:14:28;;;;;;;13.10;5.50;;;17.90;99.90;;;;;;5049164;28;20112;-69
2023/10/01 10:17:07;;;;;;;16.27;6.63;;;17.90;99.90;;;;;;5048145;28;20346;-69
2023/10/01 10:19:47;;;;;;;13.95;5.65;;;17.90;99.90;;;;;;5047697;28;20122;-68
2023/10/01 10:22:16;;;;;;;17.33;6.13;;;17.90;99.90;;;;;;5048499;28;20064;-69
2023/10/01 10:24:50;;;;;;;12.20;5.55;;;17.90;99.90;;;;;;5044335;28;20370;-69
2023/10/01 10:27:24;;;;;;;15.43;5.57;;;18.00;99.90;;;;;;5048812;28;20045;-69
2023/10/01 10:29:56;;;;;;;15.82;5.68;;;18.00;99.90;;;;;;5048467;28;20536;-69
2023/10/01 10:32:30;;;;;;;17.05;5.70;;;18.10;99.90;;;;;;5031687;28;20553;-71
2023/10/01 10:35:04;;;;;;;18.17;6.35;;;18.20;99.90;;;;;;5042101;28;20067;-70
2023/10/01 10:37:36;;;;;;;15.52;5.70;;;18.20;99.90;;;;;;5030506;28;20118;-69
2023/10/01 10:40:04;;;;;;;15.43;6.38;;;18.40;99.90;;;;;;5044417;28;20447;-70
2023/10/01 10:42:33;;;;;;;14.55;5.70;;;18.60;99.90;;;;;;5045796;28;20090;-69
2023/10/01 10:45:20;;;;;;;15.25;5.85;;;18.80;99.90;;;;;;5039545;28;20120;-69
2023/10/01 10:48:03;;;;;;;20.38;6.40;;;19.00;99.90;;;;;;5044747;28;20052;-69
2023/10/01 10:50:48;;;;;;;15.35;5.70;;;19.10;99.90;;;;;;5044172;28;20394;-69
2023/10/01 10:53:21;;;;;;;14.10;5.60;;;19.30;99.90;;;;;;5046173;28;20116;-68
2023/10/01 10:56:00;;;;;;;12.23;5.80;;;19.40;99.90;;;;;;5045577;28;20033;-70
2023/10/01 10:58:28;;;;;;;16.15;5.82;;;19.40;99.90;;;;;;5049006;28;20045;-70
2023/10/01 11:00:55;;;;;;;14.75;5.68;;;19.50;99.90;;;;;;5022932;28;20064;-70
2023/10/01 11:03:42;;;;;;;13.52;5.93;;;19.50;99.90;;;;;;5042317;28;20413;-69
2023/10/01 11:06:16;;;;;;;18.25;6.25;;;19.60;99.90;;;;;;5036775;28;20660;-69
2023/10/01 11:08:50;;;;;;;16.55;6.35;;;19.70;99.90;;;;;;5027281;28;20052;-71
2023/10/01 11:11:24;;;;;;;12.98;5.35;;;19.70;99.90;;;;;;5046543;28;20041;-69
2023/10/01 11:14:02;;;;;;;14.73;5.00;;;19.80;99.90;;;;;;5042654;28;20033;-70
2023/10/01 11:16:38;;;;;;;12.85;5.57;;;19.80;99.90;;;;;;5026651;28;20044;-70
2023/10/01 11:19:15;;;;;;;14.20;5.85;;;19.80;99.90;;;;;;5030166;28;20125;-70
2023/10/01 11:22:00;;;;;;;16.58;5.63;;;19.80;99.90;;;;;;5044469;28;20052;-69
2023/10/01 11:24:30;;;;;;;15.40;5.57;;;19.80;99.90;;;;;;5042469;28;20045;-70
2023/10/01 11:27:22;;;;;;;11.15;4.97;;;19.80;99.90;;;;;;5047755;28;20337;-70
2023/10/01 11:30:21;;;;;;;13.43;4.80;;;19.80;99.90;;;;;;5046968;28;20056;-70
2023/10/01 11:32:58;;;;;;;14.02;5.45;;;20.00;99.90;;;;;;5040885;28;20136;-69
2023/10/01 11:35:32;;;;;;;14.35;5.93;;;20.00;99.90;;;;;;5044059;28;20044;-70
2023/10/01 11:38:14;;;;;;;12.38;5.32;;;20.00;99.90;;;;;;5051333;28;20033;-70
2023/10/01 11:43:32;;;;;;;15.27;5.95;;;20.20;99.90;;;;;;5039312;28;20048;-70
2023/10/01 11:46:19;;;;;;;11.93;5.18;;;20.20;99.90;;;;;;5047793;28;20053;-71
2023/10/01 11:49:14;;;;;;;15.35;5.43;;;20.20;99.90;;;;;;5047540;28;20391;-68
2023/10/01 11:51:44;;;;;;;16.33;5.93;;;20.20;99.90;;;;;;5048059;28;20836;-70
2023/10/01 11:54:12;;;;;;;16.45;5.85;;;20.20;99.90;;;;;;5021382;28;20059;-70
2023/10/01 11:56:40;;;;;;;17.65;6.25;;;20.30;99.90;;;;;;5064714;28;20037;-71
2023/10/01 11:59:11;;;;;;;17.70;7.50;;;20.30;99.90;;;;;;5044151;28;20137;-68
2023/10/01 12:01:47;;;;;;;18.02;7.57;;;20.40;99.90;;;;;;5055130;28;20037;-70
2023/10/01 12:04:21;;;;;;;18.73;8.20;;;20.50;99.90;;;;;;5031209;28;20057;-71
2023/10/01 12:06:48;;;;;;;16.90;6.50;;;20.60;99.90;;;;;;5028547;28;20041;-70
2023/10/01 12:09:14;;;;;;;16.27;6.68;;;20.70;99.90;;;;;;5043538;28;20597;-71
2023/10/01 12:11:40;;;;;;;16.13;6.13;;;20.80;99.90;;;;;;5052107;28;20112;-70
2023/10/01 12:14:18;;;;;;;15.02;6.15;;;20.80;99.90;;;;;;5053523;28;20097;-69
2023/10/01 12:16:44;;;;;;;15.77;6.35;;;20.90;99.90;;;;;;5036231;28;20033;-68
2023/10/01 12:19:22;;;;;;;17.67;7.07;;;21.00;99.90;;;;;;5041304;28;20045;-69
2023/10/01 12:22:04;;;;;;;14.07;5.90;;;21.10;99.90;;;;;;5045686;28;20491;-68
2023/10/01 12:24:45;;;;;;;14.80;4.97;;;21.10;99.90;;;;;;5054197;28;20132;-70
2023/10/01 12:27:29;;;;;;;15.50;6.30;;;21.10;99.90;;;;;;5048783;28;20127;-70
2023/10/01 12:29:55;;;;;;;16.48;6.18;;;21.00;99.90;;;;;;5042684;28;20099;-69
2023/10/01 12:32:21;;;;;;;16.48;5.82;;;21.10;99.90;;;;;;5047887;28;20061;-71
2023/10/01 12:34:46;;;;;;;18.42;5.93;;;21.10;99.90;;;;;;5031907;28;20517;-70
2023/10/01 12:40:16;;;;;;;11.65;5.05;;;21.20;99.90;;;;;;5009352;28;20044;-68
2023/10/01 12:42:50;;;;;;;15.80;5.43;;;21.20;99.90;;;;;;5010772;28;20052;-70
2023/10/01 12:45:27;;;;;;;14.20;5.20;;;21.10;99.90;;;;;;5014061;28;20075;-70
2023/10/01 12:47:53;;;;;;;11.75;4.85;;;21.20;99.90;;;;;;5053380;28;20528;-72
2023/10/01 12:50:27;;;;;;;14.50;5.28;;;21.30;99.90;;;;;;5052310;28;20147;-70
2023/10/01 12:53:19;;;;;;;12.57;5.10;;;21.40;99.90;;;;;;5038854;28;20045;-72
2023/10/01 12:55:40;;;;;;;12.18;4.53;;;21.40;99.90;;;;;;5051465;28;20057;-71
2023/10/01 12:58:07;;;;;;;11.30;4.60;;;21.50;99.50;;;;;;5028127;28;20847;-71
2023/10/01 13:00:45;;;;;;;13.40;5.20;;;21.80;98.00;;;;;;5037540;28;20117;-70
2023/10/01 13:03:17;;;;;;;12.90;5.07;;;21.80;97.70;;;;;;5025974;28;20419;-69
2023/10/01 13:05:45;;;;;;;10.95;4.93;;;21.80;97.90;;;;;;5024646;28;20037;-69
2023/10/01 13:08:11;;;;;;;15.93;4.97;;;21.70;98.00;;;;;;5042122;28;20037;-70
2023/10/01 13:10:38;;;;;;;12.27;5.20;;;21.60;97.70;;;;;;5057294;28;20067;-69
2023/10/01 13:13:08;;;;;;;13.52;4.88;;;21.80;97.50;;;;;;5041832;28;20029;-69
2023/10/01 13:15:36;;;;;;;15.95;5.97;;;21.70;97.20;;;;;;5020016;28;20442;-69
2023/10/01 13:18:18;;;;;;;11.82;4.88;;;21.80;97.20;;;;;;5049698;28;20041;-70
2023/10/01 13:23:24;;;;;;;14.65;5.05;;;21.90;97.30;;;;;;5040025;28;20047;-68
2023/10/01 13:26:05;;;;;;;12.65;4.57;;;21.90;97.00;;;;;;5042773;28;20080;-68
2023/10/01 13:28:43;;;;;;;11.07;4.75;;;22.00;97.30;;;;;;5059198;28;20428;-69